Arklow Rogue — EIGD — position and weather

sailwx.info

Track history (hours):
 
Tides and Currents Weather Stations Pressure Air Temp Water Temp Dewpoint Dewpoint Depression Visibility Wind Speed Wind Dir Waves Ship Positions

Arklow Rogue

Last reported at 2014-Oct-21 19:19 UTC. Time now 2014-Oct-21 19:56 UTC.
Position N 53°55' E 009°12'.

Length 90 m; draft 3.4 m.

Type: Cargo ship. MMSI: 250000960.

Date/timePositionNaut miles runAvg speedWind from/ knotsBaromVisibWave heightAir tempDewpointWater temp
2014-Oct-21 19:19N 53°55' E 009°12'0 0.0
2014-Oct-21 18:31N 53°55' E 009°12'0 0.0
2014-Oct-21 17:31N 53°55' E 009°12'0 0.0
2014-Oct-21 16:31N 53°55' E 009°12'0 0.0
2014-Oct-21 15:31N 53°55' E 009°12'0 0.0
2014-Oct-21 14:25N 53°55' E 009°12'0 0.0
2014-Oct-21 13:31N 53°55' E 009°12'0 0.0
2014-Oct-21 12:28N 53°55' E 009°12'0 0.0
2014-Oct-21 11:13N 53°55' E 009°12'0 0.0
2014-Oct-21 10:25N 53°55' E 009°12'0 0.0
2014-Oct-21 09:13N 53°55' E 009°12'0 0.0
2014-Oct-21 08:31N 53°55' E 009°12'0 0.0
2014-Oct-21 07:25N 53°55' E 009°12'0 0.0
2014-Oct-21 06:13N 53°55' E 009°12'0 0.0
2014-Oct-21 05:31N 53°55' E 009°12'0 0.0
2014-Oct-21 04:31N 53°55' E 009°12'0 0.0
2014-Oct-20 15:31N 53°55' E 009°12'0 0.0
2014-Oct-20 09:31N 53°55' E 009°12'0 0.0
2014-Oct-20 07:25N 53°55' E 009°12'0 0.0
2014-Oct-20 03:07N 53°55' E 009°12'0 0.0
2014-Oct-20 02:19N 53°55' E 009°12'0 0.0
2014-Oct-19 20:07N 53°55' E 009°12'0 0.0
2014-Oct-19 18:13N 53°55' E 009°12'0 0.0
2014-Oct-19 17:31N 53°55' E 009°12'1 0.0
2014-Oct-18 16:33N 53°55' E 009°11'2 2.2
2014-Oct-18 15:33N 53°53' E 009°08'6 5.7
2014-Oct-18 14:33N 53°51' E 008°59'9 9.2
2014-Oct-18 13:33N 53°52' E 008°44'9 9.3
2014-Oct-18 12:33N 53°58' E 008°32'1111.4
2014-Oct-18 11:33N 53°60' E 008°13'10 9.9
2014-Oct-18 10:33N 53°58' E 007°57'10 9.6
2014-Oct-18 09:29N 53°56' E 007°39'21 9.0
2014-Oct-18 07:07N 53°51' E 007°04'2710.3
2014-Oct-18 04:33N 53°45' E 006°21'1212.2
2014-Oct-18 03:33N 53°41' E 006°01'1313.0
2014-Oct-18 02:33N 53°36' E 005°41'1312.7
2014-Oct-18 01:33N 53°32' E 005°20'1313.4
2014-Oct-18 00:33N 53°27' E 004°59'2912.9
2014-Oct-17 22:20N 53°06' E 004°27'1013.3
2014-Oct-17 21:33N 52°57' E 004°19'1812.7
2014-Oct-17 20:09N 52°42' E 004°05'812.3
2014-Oct-17 19:32N 52°35' E 003°59'1211.9
2014-Oct-17 18:33N 52°24' E 003°53'1111.5
2014-Oct-17 17:33N 52°12' E 003°54'1010.3
2014-Oct-17 16:34N 52°02' E 003°55'1413.5
2014-Oct-17 15:33N 51°55' E 004°14'2 2.0
2014-Oct-17 14:26N 51°53' E 004°17'0 0.0
2014-Oct-17 13:23N 51°53' E 004°17'0 0.0
2014-Oct-17 12:14N 51°53' E 004°17'0 0.0
2014-Oct-17 11:20N 51°53' E 004°17'0 0.0
2014-Oct-17 10:29N 51°53' E 004°17'0 0.0
2014-Oct-17 09:32N 51°53' E 004°17'0 0.0
2014-Oct-17 08:32N 51°53' E 004°17'0 0.0
2014-Oct-17 06:23N 51°53' E 004°17'0 0.0
2014-Oct-17 05:26N 51°53' E 004°17'0 0.0
2014-Oct-17 04:23N 51°53' E 004°17'0 0.0
2014-Oct-17 03:23N 51°53' E 004°17'0 0.0
2014-Oct-17 02:23N 51°53' E 004°17'0 0.0
2014-Oct-17 01:26N 51°53' E 004°17'0 0.0
2014-Oct-17 00:17N 51°53' E 004°17'0 0.0
2014-Oct-16 23:23N 51°53' E 004°17'0 0.0
2014-Oct-16 22:32N 51°53' E 004°17'0 0.0
2014-Oct-16 20:26N 51°53' E 004°17'0 0.0
2014-Oct-16 19:23N 51°53' E 004°17'0 0.0
2014-Oct-16 18:17N 51°53' E 004°17'0 0.0
2014-Oct-16 17:23N 51°53' E 004°17'0 0.0
2014-Oct-16 16:32N 51°53' E 004°17'0 0.0
2014-Oct-16 15:23N 51°53' E 004°17'0 0.0
2014-Oct-16 14:32N 51°53' E 004°17'0 0.0
2014-Oct-16 13:23N 51°53' E 004°17'0 0.0
2014-Oct-16 10:32N 51°53' E 004°17'0 0.0
2014-Oct-16 08:32N 51°53' E 004°17'0 0.0
2014-Oct-16 07:11N 51°53' E 004°17'0 0.0
2014-Oct-16 06:32N 51°53' E 004°17'0 0.0
2014-Oct-16 05:32N 51°53' E 004°17'0 0.0
2014-Oct-16 03:32N 51°53' E 004°17'0 0.0
2014-Oct-16 02:26N 51°53' E 004°17'0 0.0
2014-Oct-16 01:14N 51°53' E 004°17'0 0.0
2014-Oct-16 00:32N 51°53' E 004°17'0 0.0
2014-Oct-15 23:20N 51°53' E 004°17'0 0.0
2014-Oct-15 22:26N 51°53' E 004°17'0 0.0
2014-Oct-15 21:29N 51°53' E 004°17'0 0.0
2014-Oct-15 20:08N 51°53' E 004°17'0 0.0
2014-Oct-15 19:31N 51°53' E 004°17'1 1.3
2014-Oct-15 18:34N 51°54' E 004°16'1212.1
2014-Oct-15 17:33N 51°60' E 003°58'10 9.8
2014-Oct-15 16:29N 52°03' E 003°42'40010.5
2014-Oct-14 02:20N 58°40' E 005°09'911.0
2014-Oct-14 01:33N 58°48' E 005°13'1111.3
2014-Oct-14 00:33N 58°59' E 005°18'1111.0
2014-Oct-13 23:33N 59°10' E 005°20'1111.1
2014-Oct-13 22:34N 59°21' E 005°19'  
Track history (hours):
 
Tides and Currents Weather Stations Pressure Air Temp Water Temp Dewpoint Dewpoint Depression Visibility Wind Speed Wind Dir Waves Ship Positions

Arklow Rogue

Last reported at 2014-Oct-21 19:19 UTC. Time now 2014-Oct-21 19:56 UTC.
Position N 53°55' E 009°12'.

Length 90 m; draft 3.4 m.

Type: Cargo ship. MMSI: 250000960.

Date/timePositionNaut miles runAvg speedWind from/ knotsBaromVisibWave heightAir tempDewpointWater temp
2014-Oct-21 19:19N 53°55' E 009°12'0 0.0
2014-Oct-21 18:31N 53°55' E 009°12'0 0.0
2014-Oct-21 17:31N 53°55' E 009°12'0 0.0
2014-Oct-21 16:31N 53°55' E 009°12'0 0.0
2014-Oct-21 15:31N 53°55' E 009°12'0 0.0
2014-Oct-21 14:25N 53°55' E 009°12'0 0.0
2014-Oct-21 13:31N 53°55' E 009°12'0 0.0
2014-Oct-21 12:28N 53°55' E 009°12'0 0.0
2014-Oct-21 11:13N 53°55' E 009°12'0 0.0
2014-Oct-21 10:25N 53°55' E 009°12'0 0.0
2014-Oct-21 09:13N 53°55' E 009°12'0 0.0
2014-Oct-21 08:31N 53°55' E 009°12'0 0.0
2014-Oct-21 07:25N 53°55' E 009°12'0 0.0
2014-Oct-21 06:13N 53°55' E 009°12'0 0.0
2014-Oct-21 05:31N 53°55' E 009°12'0 0.0
2014-Oct-21 04:31N 53°55' E 009°12'0 0.0
2014-Oct-20 15:31N 53°55' E 009°12'0 0.0
2014-Oct-20 09:31N 53°55' E 009°12'0 0.0
2014-Oct-20 07:25N 53°55' E 009°12'0 0.0
2014-Oct-20 03:07N 53°55' E 009°12'0 0.0
2014-Oct-20 02:19N 53°55' E 009°12'0 0.0
2014-Oct-19 20:07N 53°55' E 009°12'0 0.0
2014-Oct-19 18:13N 53°55' E 009°12'0 0.0
2014-Oct-19 17:31N 53°55' E 009°12'1 0.0
2014-Oct-18 16:33N 53°55' E 009°11'2 2.2
2014-Oct-18 15:33N 53°53' E 009°08'6 5.7
2014-Oct-18 14:33N 53°51' E 008°59'9 9.2
2014-Oct-18 13:33N 53°52' E 008°44'9 9.3
2014-Oct-18 12:33N 53°58' E 008°32'1111.4
2014-Oct-18 11:33N 53°60' E 008°13'10 9.9
2014-Oct-18 10:33N 53°58' E 007°57'10 9.6
2014-Oct-18 09:29N 53°56' E 007°39'21 9.0
2014-Oct-18 07:07N 53°51' E 007°04'2710.3
2014-Oct-18 04:33N 53°45' E 006°21'1212.2
2014-Oct-18 03:33N 53°41' E 006°01'1313.0
2014-Oct-18 02:33N 53°36' E 005°41'1312.7
2014-Oct-18 01:33N 53°32' E 005°20'1313.4
2014-Oct-18 00:33N 53°27' E 004°59'2912.9
2014-Oct-17 22:20N 53°06' E 004°27'1013.3
2014-Oct-17 21:33N 52°57' E 004°19'1812.7
2014-Oct-17 20:09N 52°42' E 004°05'812.3
2014-Oct-17 19:32N 52°35' E 003°59'1211.9
2014-Oct-17 18:33N 52°24' E 003°53'1111.5
2014-Oct-17 17:33N 52°12' E 003°54'1010.3
2014-Oct-17 16:34N 52°02' E 003°55'1413.5
2014-Oct-17 15:33N 51°55' E 004°14'2 2.0
2014-Oct-17 14:26N 51°53' E 004°17'0 0.0
2014-Oct-17 13:23N 51°53' E 004°17'0 0.0
2014-Oct-17 12:14N 51°53' E 004°17'0 0.0
2014-Oct-17 11:20N 51°53' E 004°17'0 0.0
2014-Oct-17 10:29N 51°53' E 004°17'0 0.0
2014-Oct-17 09:32N 51°53' E 004°17'0 0.0
2014-Oct-17 08:32N 51°53' E 004°17'0 0.0
2014-Oct-17 06:23N 51°53' E 004°17'0 0.0
2014-Oct-17 05:26N 51°53' E 004°17'0 0.0
2014-Oct-17 04:23N 51°53' E 004°17'0 0.0
2014-Oct-17 03:23N 51°53' E 004°17'0 0.0
2014-Oct-17 02:23N 51°53' E 004°17'0 0.0
2014-Oct-17 01:26N 51°53' E 004°17'0 0.0
2014-Oct-17 00:17N 51°53' E 004°17'0 0.0
2014-Oct-16 23:23N 51°53' E 004°17'0 0.0
2014-Oct-16 22:32N 51°53' E 004°17'0 0.0
2014-Oct-16 20:26N 51°53' E 004°17'0 0.0
2014-Oct-16 19:23N 51°53' E 004°17'0 0.0
2014-Oct-16 18:17N 51°53' E 004°17'0 0.0
2014-Oct-16 17:23N 51°53' E 004°17'0 0.0
2014-Oct-16 16:32N 51°53' E 004°17'0 0.0
2014-Oct-16 15:23N 51°53' E 004°17'0 0.0
2014-Oct-16 14:32N 51°53' E 004°17'0 0.0
2014-Oct-16 13:23N 51°53' E 004°17'0 0.0
2014-Oct-16 10:32N 51°53' E 004°17'0 0.0
2014-Oct-16 08:32N 51°53' E 004°17'0 0.0
2014-Oct-16 07:11N 51°53' E 004°17'0 0.0
2014-Oct-16 06:32N 51°53' E 004°17'0 0.0
2014-Oct-16 05:32N 51°53' E 004°17'0 0.0
2014-Oct-16 03:32N 51°53' E 004°17'0 0.0
2014-Oct-16 02:26N 51°53' E 004°17'0 0.0
2014-Oct-16 01:14N 51°53' E 004°17'0 0.0
2014-Oct-16 00:32N 51°53' E 004°17'0 0.0
2014-Oct-15 23:20N 51°53' E 004°17'0 0.0
2014-Oct-15 22:26N 51°53' E 004°17'0 0.0
2014-Oct-15 21:29N 51°53' E 004°17'0 0.0
2014-Oct-15 20:08N 51°53' E 004°17'0 0.0
2014-Oct-15 19:31N 51°53' E 004°17'1 1.3
2014-Oct-15 18:34N 51°54' E 004°16'1212.1
2014-Oct-15 17:33N 51°60' E 003°58'10 9.8
2014-Oct-15 16:29N 52°03' E 003°42'40010.5
2014-Oct-14 02:20N 58°40' E 005°09'911.0
2014-Oct-14 01:33N 58°48' E 005°13'1111.3
2014-Oct-14 00:33N 58°59' E 005°18'1111.0
2014-Oct-13 23:33N 59°10' E 005°20'1111.1
2014-Oct-13 22:34N 59°21' E 005°19'  

Dump ship's entire track history